Time;durP1;ratioP1;P1;durP2;ratioP2;P2;SDS_P1;SDS_P2;PMS_P1;PMS_P2;Temp;Humidity;BMP_temperature;BMP_pressure;BME280_temperature;BME280_humidity;BME280_pressure;Samples;Min_cycle;Max_cycle;Signal;HPM_P1;HPM_P2
2023/05/23 01:30:28;;;;;;;;;;;13.10;99.90;;;;;;5383962;22;20983;-84
2023/05/23 01:32:55;;;;;;;;;;;13.10;99.90;;;;;;5061821;28;19955;-85
2023/05/23 01:35:23;;;;;;;;;;;13.00;99.90;;;;;;5069662;28;20011;-85
2023/05/23 01:37:48;;;;;;;;;;;13.00;99.90;;;;;;5077117;28;19928;-85
2023/05/23 01:40:14;;;;;;;;;;;13.00;99.90;;;;;;5052249;28;20270;-85
2023/05/23 01:42:40;;;;;;;;;;;13.00;99.90;;;;;;5052591;28;19932;-85
2023/05/23 01:45:05;;;;;;;;;;;12.90;99.90;;;;;;5070012;28;20426;-86
2023/05/23 01:47:31;;;;;;;;;;;12.90;99.90;;;;;;5055562;28;20039;-86
2023/05/23 01:49:58;;;;;;;;;;;12.90;99.90;;;;;;5070680;28;19931;-85
2023/05/23 01:52:24;;;;;;;;;;;12.90;99.90;;;;;;5046405;28;19997;-86
2023/05/23 01:54:50;;;;;;;;;;;12.90;99.90;;;;;;5075091;28;20265;-86
2023/05/23 01:57:15;;;;;;;;;;;12.90;99.90;;;;;;5070765;28;20280;-86
2023/05/23 01:59:41;;;;;;;;;;;12.90;99.90;;;;;;5051513;28;19970;-86
2023/05/23 02:02:08;;;;;;;;;;;12.80;99.90;;;;;;5052736;28;19970;-85
2023/05/23 02:04:33;;;;;;;;;;;12.80;99.90;;;;;;5052709;28;20027;-85
2023/05/23 02:06:59;;;;;;;;;;;12.80;99.90;;;;;;5057542;28;20007;-86
2023/05/23 02:09:25;;;;;;;;;;;12.70;99.90;;;;;;5072278;28;20045;-85
2023/05/23 02:11:51;;;;;;;;;;;12.70;99.90;;;;;;5054182;28;20546;-84
2023/05/23 02:14:17;;;;;;;;;;;12.60;99.90;;;;;;5051996;28;19932;-85
2023/05/23 02:16:43;;;;;;;;;;;12.60;99.90;;;;;;5055475;28;19924;-85
2023/05/23 02:19:09;;;;;;;;;;;12.60;99.90;;;;;;5049508;28;19928;-86
2023/05/23 02:21:34;;;;;;;;;;;12.50;99.90;;;;;;5054084;28;19928;-86
2023/05/23 02:24:00;;;;;;;;;;;12.50;99.90;;;;;;5070264;28;20011;-86
2023/05/23 02:26:26;;;;;;;;;;;12.40;99.90;;;;;;5071498;28;19932;-85
2023/05/23 02:28:52;;;;;;;;;;;12.40;99.90;;;;;;5067634;28;19928;-86
2023/05/23 02:31:17;;;;;;;;;;;12.30;99.90;;;;;;5060733;28;19950;-85
2023/05/23 02:33:43;;;;;;;;;;;12.30;99.90;;;;;;5086595;28;20356;-85
2023/05/23 02:36:09;;;;;;;;;;;12.20;99.90;;;;;;5065663;28;20014;-84
2023/05/23 02:38:34;;;;;;;;;;;12.20;99.90;;;;;;5049801;28;19956;-85
2023/05/23 02:41:00;;;;;;;;;;;12.20;99.90;;;;;;5083849;28;19993;-85
2023/05/23 02:43:25;;;;;;;;;;;12.20;99.90;;;;;;5070844;28;20003;-85
2023/05/23 02:45:51;;;;;;;;;;;12.20;99.90;;;;;;5086026;28;19928;-85
2023/05/23 02:48:17;;;;;;;;;;;12.20;99.90;;;;;;5088844;28;20373;-84
2023/05/23 02:50:43;;;;;;;;;;;12.10;99.90;;;;;;5051433;28;20356;-84
2023/05/23 02:53:08;;;;;;;;;;;12.10;99.90;;;;;;5070924;28;19974;-84
2023/05/23 02:55:34;;;;;;;;;;;12.10;99.90;;;;;;5086141;28;20388;-84
2023/05/23 02:57:59;;;;;;;;;;;12.00;99.90;;;;;;5069352;28;19924;-84
2023/05/23 03:00:25;;;;;;;;;;;12.00;99.90;;;;;;5081625;28;20250;-84
2023/05/23 03:02:51;;;;;;;;;;;12.00;99.90;;;;;;5083003;28;19932;-84
2023/05/23 03:05:17;;;;;;;;;;;11.90;99.90;;;;;;5065638;28;19962;-84
2023/05/23 03:07:42;;;;;;;;;;;11.90;99.90;;;;;;5084961;28;20373;-85
2023/05/23 03:10:08;;;;;;;;;;;11.80;99.90;;;;;;5082434;28;20342;-85
2023/05/23 03:12:34;;;;;;;;;;;11.80;99.90;;;;;;5088758;28;19928;-84
2023/05/23 03:14:59;;;;;;;;;;;11.70;99.90;;;;;;5069230;28;19924;-84
2023/05/23 03:17:25;;;;;;;;;;;11.70;99.90;;;;;;5070942;28;19928;-84
2023/05/23 03:19:50;;;;;;;;;;;11.60;99.90;;;;;;5642171;22;19932;-76
2023/05/23 03:22:16;;;;;;;;;;;11.60;99.90;;;;;;5113328;28;19932;-76
2023/05/23 03:24:42;;;;;;;;;;;11.60;99.90;;;;;;5098965;28;19931;-76
2023/05/23 03:27:08;;;;;;;;;;;11.60;99.90;;;;;;5115878;28;19924;-83
2023/05/23 03:29:33;;;;;;;;;;;11.60;99.90;;;;;;5114966;28;20010;-76
2023/05/23 03:31:59;;;;;;;;;;;11.60;99.90;;;;;;5088385;28;19931;-81
2023/05/23 03:34:25;;;;;;;;;;;11.60;99.90;;;;;;5106663;28;20071;-76
2023/05/23 03:36:51;;;;;;;;;;;11.60;99.90;;;;;;5114958;28;19928;-84
2023/05/23 03:39:17;;;;;;;;;;;11.60;99.90;;;;;;5111788;28;19920;-76
2023/05/23 03:41:42;;;;;;;;;;;11.60;99.90;;;;;;5100141;28;19968;-76
2023/05/23 03:44:08;;;;;;;;;;;11.50;99.90;;;;;;5112074;28;20299;-77
2023/05/23 03:46:34;;;;;;;;;;;11.50;99.90;;;;;;5114477;28;19997;-76
2023/05/23 03:48:59;;;;;;;;;;;11.50;99.90;;;;;;5114702;28;19931;-76
2023/05/23 03:51:25;;;;;;;;;;;11.50;99.90;;;;;;5115261;28;20296;-76
2023/05/23 03:53:50;;;;;;;;;;;11.50;99.90;;;;;;5105958;28;19924;-76
2023/05/23 03:56:16;;;;;;;;;;;11.50;99.90;;;;;;5110039;28;19938;-85
2023/05/23 03:58:41;;;;;;;;;;;11.50;99.90;;;;;;5114324;28;19930;-76
2023/05/23 04:01:08;;;;;;;;;;;11.50;99.90;;;;;;5125749;27;19930;-77
2023/05/23 04:03:33;;;;;;;;;;;11.50;99.90;;;;;;5114819;28;19928;-77
2023/05/23 04:05:59;;;;;;;;;;;11.50;99.90;;;;;;5114453;28;19931;-82
2023/05/23 04:08:25;;;;;;;;;;;11.50;99.90;;;;;;5111231;28;19975;-76
2023/05/23 04:10:51;;;;;;;;;;;11.50;99.90;;;;;;5111977;28;19986;-76
2023/05/23 04:13:17;;;;;;;;;;;11.50;99.90;;;;;;5112678;28;19931;-76
2023/05/23 04:15:43;;;;;;;;;;;11.50;99.90;;;;;;5110334;28;20010;-76
2023/05/23 04:18:09;;;;;;;;;;;11.50;99.90;;;;;;5097782;28;19935;-79
2023/05/23 04:20:35;;;;;;;;;;;11.60;99.90;;;;;;5113823;28;19923;-76
2023/05/23 04:23:00;;;;;;;;;;;11.50;99.90;;;;;;5114745;28;19924;-76
2023/05/23 04:25:26;;;;;;;;;;;11.50;99.90;;;;;;5130650;27;19930;-77
2023/05/23 04:27:53;;;;;;;;;;;11.50;99.90;;;;;;5114366;28;19927;-76
2023/05/23 04:30:19;;;;;;;;;;;11.50;99.90;;;;;;5105996;28;20349;-76
2023/05/23 04:32:44;;;;;;;;;;;11.50;99.90;;;;;;5114531;28;19928;-77
2023/05/23 04:35:10;;;;;;;;;;;11.50;99.90;;;;;;5113858;28;19924;-77
2023/05/23 04:37:36;;;;;;;;;;;11.50;99.90;;;;;;5109019;28;19924;-77
2023/05/23 04:40:02;;;;;;;;;;;11.40;99.90;;;;;;5106493;28;19930;-76
2023/05/23 04:42:28;;;;;;;;;;;11.40;99.90;;;;;;5114213;28;20002;-77
2023/05/23 04:44:56;;;;;;;;;;;11.40;99.90;;;;;;5109594;28;20344;-77
2023/05/23 04:47:23;;;;;;;;;;;11.40;99.90;;;;;;5111107;28;19924;-80
2023/05/23 04:49:49;;;;;;;;;;;11.40;99.90;;;;;;5089542;28;19976;-78
2023/05/23 04:52:17;;;;;;;;;;;11.30;99.90;;;;;;5108669;28;20392;-78
2023/05/23 04:54:45;;;;;;;;;;;11.30;99.90;;;;;;5110869;28;20002;-79
2023/05/23 04:57:11;;;;;;;;;;;11.30;99.90;;;;;;5092462;28;19924;-78
2023/05/23 04:59:37;;;;;;;;;;;11.30;99.90;;;;;;5112083;28;19981;-79
2023/05/23 05:02:02;;;;;;;;;;;11.30;99.90;;;;;;5112824;28;20403;-77
2023/05/23 05:04:28;;;;;;;;;;;11.30;99.90;;;;;;5078432;28;19923;-78
2023/05/23 05:06:53;;;;;;;;;;;11.30;99.90;;;;;;5112371;28;19931;-82
2023/05/23 05:09:20;;;;;;;;;;;11.40;99.90;;;;;;5097722;28;19971;-77
2023/05/23 05:11:46;;;;;;;;;;;11.40;99.90;;;;;;5104749;28;19919;-79
2023/05/23 05:14:12;;;;;;;;;;;11.30;99.90;;;;;;5110455;28;19928;-76
2023/05/23 05:16:37;;;;;;;;;;;11.30;99.90;;;;;;5096334;28;19930;-77
2023/05/23 05:19:03;;;;;;;;;;;11.30;99.90;;;;;;5115808;28;19986;-77
2023/05/23 05:21:28;;;;;;;;;;;11.30;99.90;;;;;;5097194;28;19924;-83
2023/05/23 05:23:54;;;;;;;;;;;11.40;99.90;;;;;;5115164;28;19979;-78
2023/05/23 05:26:20;;;;;;;;;;;11.40;99.90;;;;;;5115363;28;19924;-79
2023/05/23 05:28:45;;;;;;;;;;;11.40;99.90;;;;;;5114870;28;19930;-76
2023/05/23 05:31:14;;;;;;;;;;;11.30;99.90;;;;;;5097362;28;20322;-77
2023/05/23 05:33:40;;;;;;;;;;;11.30;99.90;;;;;;5114523;28;19923;-77
2023/05/23 05:36:06;;;;;;;;;;;11.30;99.90;;;;;;5114699;28;19924;-77
2023/05/23 05:38:32;;;;;;;;;;;11.20;99.90;;;;;;5100137;28;19977;-84
2023/05/23 05:40:57;;;;;;;;;;;11.20;99.90;;;;;;5112337;28;19923;-77
2023/05/23 05:43:24;;;;;;;;;;;11.20;99.90;;;;;;5113560;28;19928;-78
2023/05/23 05:45:50;;;;;;;;;;;11.10;99.90;;;;;;5112145;28;19959;-78
2023/05/23 05:48:16;;;;;;;;;;;11.10;99.90;;;;;;5109827;28;20001;-77
2023/05/23 05:50:44;;;;;;;;;;;11.10;99.90;;;;;;5105103;28;19923;-79
2023/05/23 05:53:10;;;;;;;;;;;11.10;99.90;;;;;;5110514;28;19927;-78
2023/05/23 05:55:35;;;;;;;;;;;11.10;97.50;;;;;;5113090;28;19924;-81
2023/05/23 05:58:01;;;;;;;;;;;11.10;94.20;;;;;;5081775;28;19939;-78
2023/05/23 06:00:26;;;;;;;;;;;11.10;80.10;;;;;;5124332;27;19932;-78
2023/05/23 06:02:56;;;;;;;;;;;11.10;56.20;;;;;;5109384;28;20154;-78
2023/05/23 06:05:21;;;;;;;;;;;11.10;41.40;;;;;;5075080;28;19928;-81
2023/05/23 06:07:48;;;;;;;;;;;11.20;15.10;;;;;;5111975;28;19931;-79
2023/05/23 06:10:14;;;;;;;;;;;11.20;1.80;;;;;;5112453;28;19927;-78
2023/05/23 06:12:39;;;;;;;;;;;11.20;1.00;;;;;;5112347;28;20402;-78
2023/05/23 06:15:05;;;;;;;;;;;11.30;1.00;;;;;;5078082;28;19923;-78
2023/05/23 06:17:31;;;;;;;;;;;11.30;1.00;;;;;;5112058;28;20402;-78
2023/05/23 06:19:56;;;;;;;;;;;11.30;1.00;;;;;;5112869;28;19924;-78
2023/05/23 06:22:22;;;;;;;;;;;11.40;1.00;;;;;;5112259;28;19930;-78
2023/05/23 06:24:48;;;;;;;;;;;11.40;1.00;;;;;;5110895;28;19969;-79
2023/05/23 06:27:13;;;;;;;;;;;11.40;1.00;;;;;;5112831;28;19973;-78
2023/05/23 06:29:39;;;;;;;;;;;11.40;1.00;;;;;;5112816;28;20012;-79
2023/05/23 06:32:05;;;;;;;;;;;11.40;1.00;;;;;;5111803;28;19923;-80
2023/05/23 06:34:30;;;;;;;;;;;11.40;1.00;;;;;;5105067;28;19924;-79
2023/05/23 06:36:56;;;;;;;;;;;11.30;1.00;;;;;;5106793;28;19927;-79
2023/05/23 06:39:21;;;;;;;;;;;11.30;1.00;;;;;;5110278;28;19934;-80
2023/05/23 06:41:47;;;;;;;;;;;11.30;1.00;;;;;;5108025;28;20004;-79
2023/05/23 06:44:13;;;;;;;;;;;11.30;1.00;;;;;;5109202;28;19931;-81
2023/05/23 06:46:38;;;;;;;;;;;11.30;1.00;;;;;;5111437;28;19924;-84
2023/05/23 06:49:04;;;;;;;;;;;11.40;1.00;;;;;;5103147;28;20028;-79
2023/05/23 06:51:30;;;;;;;;;;;11.40;1.00;;;;;;5088755;28;19938;-80
2023/05/23 06:53:56;;;;;;;;;;;11.40;1.00;;;;;;5111258;28;19924;-79
2023/05/23 06:56:22;;;;;;;;;;;11.40;99.90;;;;;;5110133;28;19980;-80
2023/05/23 06:58:47;;;;;;;;;;;11.40;99.90;;;;;;5101222;28;19928;-78
2023/05/23 07:01:13;;;;;;;;;;;11.40;99.90;;;;;;5108579;28;19924;-78
2023/05/23 07:03:40;;;;;;;;;;;11.40;99.90;;;;;;5111518;28;20018;-81
2023/05/23 07:06:06;;;;;;;;;;;11.50;99.90;;;;;;5110295;28;19973;-78
2023/05/23 07:08:32;;;;;;;;;;;11.60;99.90;;;;;;5105468;28;19931;-78
2023/05/23 07:10:57;;;;;;;;;;;11.80;99.90;;;;;;5111299;28;20376;-78
2023/05/23 07:13:23;;;;;;;;;;;12.00;97.70;;;;;;5107446;28;19924;-78
2023/05/23 07:15:48;;;;;;;;;;;12.20;99.90;;;;;;5108475;28;20006;-78
2023/05/23 07:18:14;;;;;;;;;;;12.40;99.90;;;;;;5107051;28;19928;-79
2023/05/23 07:20:40;;;;;;;;;;;12.50;99.90;;;;;;5092112;28;20273;-78
2023/05/23 07:23:05;;;;;;;;;;;12.60;99.90;;;;;;5084237;28;19932;-79
2023/05/23 07:25:31;;;;;;;;;;;12.70;99.90;;;;;;5099093;28;20054;-79
2023/05/23 07:27:56;;;;;;;;;;;12.70;99.90;;;;;;5107872;28;19928;-79
2023/05/23 07:30:22;;;;;;;;;;;12.80;99.90;;;;;;5099759;28;20380;-78
2023/05/23 07:32:48;;;;;;;;;;;12.80;99.90;;;;;;5107842;28;19930;-78
2023/05/23 07:35:14;;;;;;;;;;;12.80;99.90;;;;;;5109875;28;20395;-78
2023/05/23 07:37:40;;;;;;;;;;;12.60;99.90;;;;;;5109837;28;20373;-79
2023/05/23 07:40:07;;;;;;;;;;;12.60;99.90;;;;;;5086827;28;19919;-79
2023/05/23 07:42:33;;;;;;;;;;;12.50;99.90;;;;;;5095348;28;19956;-78
2023/05/23 07:44:59;;;;;;;;;;;12.30;99.90;;;;;;5101621;28;19960;-81
2023/05/23 07:47:26;;;;;;;;;;;12.30;99.90;;;;;;5100881;28;19924;-79
2023/05/23 07:49:52;;;;;;;;;;;12.20;99.90;;;;;;5092987;28;19928;-79
2023/05/23 07:52:17;;;;;;;;;;;12.20;99.90;;;;;;5102160;28;19950;-79
2023/05/23 07:54:43;;;;;;;;;;;12.30;99.90;;;;;;5109312;28;19924;-79
2023/05/23 07:57:09;;;;;;;;;;;12.30;99.90;;;;;;5109992;28;20931;-78
2023/05/23 07:59:35;;;;;;;;;;;12.30;99.90;;;;;;5110152;28;19928;-81
2023/05/23 08:02:00;;;;;;;;;;;12.40;99.90;;;;;;5093689;28;19932;-78
2023/05/23 08:04:27;;;;;;;;;;;12.50;99.90;;;;;;5111053;28;20361;-77
2023/05/23 08:06:52;;;;;;;;;;;12.50;99.90;;;;;;5105375;28;20384;-79
2023/05/23 08:09:18;;;;;;;;;;;12.60;99.90;;;;;;5096048;28;19924;-78
2023/05/23 08:11:43;;;;;;;;;;;12.70;99.90;;;;;;5111371;28;19928;-78
2023/05/23 08:14:09;;;;;;;;;;;12.80;99.90;;;;;;5125802;27;19920;-79
2023/05/23 08:16:35;;;;;;;;;;;12.90;99.90;;;;;;5092243;28;19924;-80
2023/05/23 08:19:01;;;;;;;;;;;13.10;94.80;;;;;;5113542;28;19923;-78
2023/05/23 08:21:26;;;;;;;;;;;13.20;92.10;;;;;;5116893;27;19927;-79
2023/05/23 08:23:52;;;;;;;;;;;13.40;90.50;;;;;;5098327;28;20425;-84
2023/05/23 08:26:18;;;;;;;;;;;13.50;47.40;;;;;;5112473;28;19924;-79
2023/05/23 08:28:43;;;;;;;;;;;13.60;1.00;;;;;;5082314;28;20003;-79
2023/05/23 08:31:09;;;;;;;;;;;13.80;16.10;;;;;;5111883;28;19931;-81
2023/05/23 08:33:34;;;;;;;;;;;14.10;29.20;;;;;;5099167;28;20304;-83
2023/05/23 08:36:00;;;;;;;;;;;14.40;27.60;;;;;;5107486;28;19927;-79
2023/05/23 08:38:26;;;;;;;;;;;14.50;1.00;;;;;;5111561;28;19992;-81
2023/05/23 08:40:51;;;;;;;;;;;14.50;1.00;;;;;;5112296;28;19928;-83
2023/05/23 08:43:18;;;;;;;;;;;14.60;6.10;;;;;;5097151;28;20340;-85
2023/05/23 08:45:44;;;;;;;;;;;14.90;1.00;;;;;;5085353;28;19928;-82
2023/05/23 08:48:12;;;;;;;;;;;15.20;1.00;;;;;;5078831;28;19928;-82
2023/05/23 08:50:39;;;;;;;;;;;15.60;1.00;;;;;;5083838;28;19923;-81
2023/05/23 08:53:07;;;;;;;;;;;16.00;1.00;;;;;;5094398;28;20273;-82
2023/05/23 08:55:33;;;;;;;;;;;16.40;1.00;;;;;;5108627;28;19931;-81
2023/05/23 08:57:59;;;;;;;;;;;16.30;1.00;;;;;;5127239;27;19936;-81
2023/05/23 09:00:25;;;;;;;;;;;16.70;1.00;;;;;;5107944;28;20376;-83
2023/05/23 09:02:53;;;;;;;;;;;17.10;1.00;;;;;;5109724;28;20688;-82
2023/05/23 09:05:26;;;;;;;;;;;16.90;1.00;;;;;;5102206;28;20015;-80
2023/05/23 09:07:51;;;;;;;;;;;16.50;1.00;;;;;;5093346;28;19974;-81
2023/05/23 09:10:19;;;;;;;;;;;16.10;1.00;;;;;;5108121;28;19966;-82
2023/05/23 09:12:44;;;;;;;;;;;16.60;1.00;;;;;;5112202;28;19938;-82
2023/05/23 09:15:10;;;;;;;;;;;17.20;1.00;;;;;;5110644;28;20018;-80
2023/05/23 09:17:36;;;;;;;;;;;17.30;1.00;;;;;;5097921;28;19924;-86
2023/05/23 09:20:05;;;;;;;;;;;17.00;1.00;;;;;;5109886;28;19950;-80
2023/05/23 09:22:31;;;;;;;;;;;16.80;1.00;;;;;;5110404;28;20697;-80
2023/05/23 09:24:57;;;;;;;;;;;16.60;1.00;;;;;;5112848;27;19927;-81
2023/05/23 09:27:23;;;;;;;;;;;16.30;1.00;;;;;;5111899;28;20277;-81
2023/05/23 09:29:49;;;;;;;;;;;16.70;1.00;;;;;;5111384;28;20013;-81
2023/05/23 09:32:16;;;;;;;;;;;17.30;1.00;;;;;;5094688;28;19935;-80
2023/05/23 09:34:53;;;;;;;;;;;17.60;1.00;;;;;;5102017;28;19924;-84
2023/05/23 09:37:18;;;;;;;;;;;17.40;1.00;;;;;;5104534;27;19924;-81
2023/05/23 09:39:50;;;;;;;;;;;17.30;1.00;;;;;;5108959;27;19928;-80
2023/05/23 09:42:22;;;;;;;;;;;17.40;1.00;;;;;;5105536;28;19924;-81
2023/05/23 09:44:48;;;;;;;;;;;17.60;1.00;;;;;;5078412;28;20422;-80
2023/05/23 09:47:16;;;;;;;;;;;18.10;1.00;;;;;;5113087;28;19924;-81
2023/05/23 09:49:42;;;;;;;;;;;18.30;1.00;;;;;;5105696;28;19928;-83
2023/05/23 09:52:08;;;;;;;;;;;17.60;1.00;;;;;;5085730;28;19932;-81
2023/05/23 09:54:33;;;;;;;;;;;16.80;1.00;;;;;;5105029;27;19935;-81
2023/05/23 09:57:00;;;;;;;;;;;16.30;1.00;;;;;;5089701;28;20283;-83
2023/05/23 09:59:30;;;;;;;;;;;16.10;1.00;;;;;;5103432;28;19924;-81
2023/05/23 10:01:56;;;;;;;;;;;16.80;1.00;;;;;;5109205;28;19927;-81
2023/05/23 10:04:24;;;;;;;;;;;17.70;1.00;;;;;;5105337;27;19931;-83
2023/05/23 10:07:00;;;;;;;;;;;18.60;1.00;;;;;;5106047;28;20016;-82
2023/05/23 10:09:27;;;;;;;;;;;18.80;1.00;;;;;;5105763;28;20307;-81
2023/05/23 10:11:58;;;;;;;;;;;19.00;1.00;;;;;;5107231;27;20007;-81
2023/05/23 10:14:28;;;;;;;;;;;18.50;1.00;;;;;;5120599;27;19935;-81
2023/05/23 10:17:07;;;;;;;;;;;18.20;1.00;;;;;;5109870;28;20036;-81
2023/05/23 10:19:48;;;;;;;;;;;17.90;1.00;;;;;;5105625;28;20376;-80
2023/05/23 10:22:15;;;;;;;;;;;18.00;1.00;;;;;;5108338;27;20051;-82
2023/05/23 10:24:43;;;;;;;;;;;19.20;1.00;;;;;;5113910;27;19978;-82
2023/05/23 10:27:09;;;;;;;;;;;20.50;1.00;;;;;;5106670;27;19928;-85
2023/05/23 10:29:35;;;;;;;;;;;21.30;1.00;;;;;;5107729;28;19924;-82
2023/05/23 10:32:02;;;;;;;;;;;20.90;1.00;;;;;;5088817;28;19925;-81
2023/05/23 10:34:53;;;;;;;;;;;20.20;1.00;;;;;;5101598;28;20471;-81
2023/05/23 10:37:25;;;;;;;;;;;19.10;1.00;;;;;;5104438;28;19935;-81
2023/05/23 10:39:56;;;;;;;;;;;18.20;1.00;;;;;;5086324;28;19932;-81
2023/05/23 10:42:34;;;;;;;;;;;17.90;1.00;;;;;;5108864;28;20033;-83
2023/05/23 10:45:18;;;;;;;;;;;17.50;1.00;;;;;;5106275;28;19924;-84
2023/05/23 10:47:46;;;;;;;;;;;17.60;1.00;;;;;;5105002;28;19932;-79
2023/05/23 10:50:13;;;;;;;;;;;18.00;1.00;;;;;;5098416;28;19942;-78
2023/05/23 10:52:40;;;;;;;;;;;17.90;1.00;;;;;;5105369;28;19973;-84
2023/05/23 10:55:13;;;;;;;;;;;17.80;1.00;;;;;;5088003;28;19973;-87
2023/05/23 10:57:40;;;;;;;;;;;17.50;1.00;;;;;;5105651;28;20292;-82
2023/05/23 11:00:11;;;;;;;;;;;17.20;1.00;;;;;;5097625;28;19924;-82
2023/05/23 11:02:37;;;;;;;;;;;17.50;1.00;;;;;;5110444;28;19927;-82
2023/05/23 11:05:21;;;;;;;;;;;18.10;1.00;;;;;;5092526;28;19939;-82
2023/05/23 11:08:07;;;;;;;;;;;18.40;1.00;;;;;;5091973;28;20043;-83
2023/05/23 11:10:50;;;;;;;;;;;17.80;1.00;;;;;;5088745;28;19928;-82
2023/05/23 11:13:16;;;;;;;;;;;17.30;1.00;;;;;;5082075;28;19946;-81
2023/05/23 11:15:43;;;;;;;;;;;17.00;1.00;;;;;;5110812;28;19924;-82
2023/05/23 11:18:10;;;;;;;;;;;17.20;1.00;;;;;;5098819;28;19931;-82
2023/05/23 11:20:36;;;;;;;;;;;17.40;1.00;;;;;;5104390;28;20299;-82
2023/05/23 11:23:06;;;;;;;;;;;17.20;1.00;;;;;;5105999;28;19928;-82
2023/05/23 11:25:39;;;;;;;;;;;16.80;1.00;;;;;;5102090;28;20361;-82
2023/05/23 11:28:05;;;;;;;;;;;16.50;1.00;;;;;;5107802;28;20002;-82
2023/05/23 11:30:32;;;;;;;;;;;16.50;1.00;;;;;;5103083;28;20010;-82
2023/05/23 11:32:58;;;;;;;;;;;17.40;1.00;;;;;;5107018;28;19971;-82
2023/05/23 11:35:23;;;;;;;;;;;17.70;1.00;;;;;;5110417;28;19970;-82
2023/05/23 11:37:49;;;;;;;;;;;17.50;1.00;;;;;;5106282;28;19932;-84
2023/05/23 11:40:25;;;;;;;;;;;17.40;1.00;;;;;;5105694;28;19932;-85
2023/05/23 11:42:51;;;;;;;;;;;17.30;1.00;;;;;;5110996;28;20011;-81
2023/05/23 11:45:20;;;;;;;;;;;17.20;1.00;;;;;;5110029;28;19990;-86
2023/05/23 11:47:46;;;;;;;;;;;16.90;1.00;;;;;;5112591;28;19924;-81
2023/05/23 11:50:12;;;;;;;;;;;17.20;1.00;;;;;;5111304;28;19924;-82
2023/05/23 11:52:37;;;;;;;;;;;17.10;1.00;;;;;;5096254;28;20007;-82
2023/05/23 11:55:03;;;;;;;;;;;16.70;1.00;;;;;;5112805;28;19928;-83
2023/05/23 11:57:29;;;;;;;;;;;16.60;1.00;;;;;;5098876;28;20411;-82
2023/05/23 11:59:54;;;;;;;;;;;16.80;1.00;;;;;;5112725;28;19932;-81
2023/05/23 12:02:21;;;;;;;;;;;17.10;1.00;;;;;;5092908;28;19969;-86
2023/05/23 12:04:50;;;;;;;;;;;17.30;1.00;;;;;;5119775;27;19924;-87
2023/05/23 12:07:18;;;;;;;;;;;18.10;1.00;;;;;;5113188;27;20284;-81
2023/05/23 12:09:43;;;;;;;;;;;18.20;1.00;;;;;;5111112;28;19924;-82
2023/05/23 12:12:09;;;;;;;;;;;18.20;1.00;;;;;;5081913;28;19966;-83
2023/05/23 12:14:37;;;;;;;;;;;18.00;1.00;;;;;;5100203;28;20288;-82
2023/05/23 12:17:03;;;;;;;;;;;18.40;1.00;;;;;;5112120;28;20031;-82
2023/05/23 12:19:28;;;;;;;;;;;19.50;1.00;;;;;;5125954;27;20034;-82
2023/05/23 12:21:54;;;;;;;;;;;20.90;1.00;;;;;;5081800;28;19932;-82
2023/05/23 12:24:21;;;;;;;;;;;21.30;1.00;;;;;;5107699;28;19939;-83
2023/05/23 12:26:47;;;;;;;;;;;21.00;1.00;;;;;;5094461;28;19927;-83
2023/05/23 12:29:12;;;;;;;;;;;20.80;1.00;;;;;;5101790;27;20006;-82
2023/05/23 12:31:39;;;;;;;;;;;20.70;1.00;;;;;;5108266;28;20010;-82
2023/05/23 12:34:04;;;;;;;;;;;21.30;1.00;;;;;;5104804;28;19939;-84
2023/05/23 12:36:33;;;;;;;;;;;22.60;1.00;;;;;;5104164;28;19923;-82
2023/05/23 12:39:02;;;;;;;;;;;23.40;1.00;;;;;;5109731;28;19957;-82
2023/05/23 12:41:28;;;;;;;;;;;22.80;1.00;;;;;;5082222;28;19960;-82
2023/05/23 12:43:54;;;;;;;;;;;21.70;1.00;;;;;;5110374;28;20460;-82
2023/05/23 12:46:21;;;;;;;;;;;21.10;1.00;;;;;;5116421;27;19954;-84
2023/05/23 12:48:46;;;;;;;;;;;20.40;1.00;;;;;;5100257;28;19928;-83
2023/05/23 12:51:15;;;;;;;;;;;20.30;1.00;;;;;;5111483;28;20356;-82
2023/05/23 12:53:41;;;;;;;;;;;20.50;1.00;;;;;;5112135;28;20014;-82
2023/05/23 12:56:07;;;;;;;;;;;20.40;1.00;;;;;;5111428;28;19927;-82
2023/05/23 12:58:33;;;;;;;;;;;19.60;1.00;;;;;;5091718;28;19992;-82
2023/05/23 13:01:00;;;;;;;;;;;18.80;1.00;;;;;;5081400;28;19935;-83
2023/05/23 13:03:26;;;;;;;;;;;19.20;1.00;;;;;;5102916;27;19938;-89
2023/05/23 13:05:52;;;;;;;;;;;19.80;1.00;;;;;;5096502;28;19928;-82
2023/05/23 13:08:18;;;;;;;;;;;19.30;1.00;;;;;;5093541;28;19982;-82
2023/05/23 13:10:44;;;;;;;;;;;18.60;1.00;;;;;;5100600;28;19929;-80
2023/05/23 13:13:11;;;;;;;;;;;18.20;1.00;;;;;;5101531;28;20395;-78
2023/05/23 13:15:36;;;;;;;;;;;19.10;1.00;;;;;;5090968;28;19928;-81
2023/05/23 13:18:02;;;;;;;;;;;20.60;1.00;;;;;;5101491;28;20381;-80
2023/05/23 13:20:29;;;;;;;;;;;21.50;1.00;;;;;;5106423;28;19924;-89
2023/05/23 13:22:58;;;;;;;;;;;22.60;1.00;;;;;;5093769;28;20371;-85
2023/05/23 13:25:24;;;;;;;;;;;23.10;1.00;;;;;;5093288;28;19923;-83
2023/05/23 13:27:49;;;;;;;;;;;22.30;1.00;;;;;;5110604;28;19949;-84
2023/05/23 13:30:15;;;;;;;;;;;22.50;1.00;;;;;;5092195;28;19950;-84
2023/05/23 13:32:41;;;;;;;;;;;23.10;1.00;;;;;;5078027;28;19924;-84
2023/05/23 13:35:07;;;;;;;;;;;23.40;1.00;;;;;;5110147;28;20402;-83
2023/05/23 13:37:33;;;;;;;;;;;23.30;1.00;;;;;;5103867;28;19924;-89
2023/05/23 13:40:01;;;;;;;;;;;22.60;1.00;;;;;;5097069;28;20389;-83
2023/05/23 13:42:26;;;;;;;;;;;22.00;1.00;;;;;;5127762;27;19931;-83
2023/05/23 13:44:52;;;;;;;;;;;21.80;1.00;;;;;;5125594;27;19919;-84
2023/05/23 13:47:17;;;;;;;;;;;22.20;1.00;;;;;;5107149;28;19924;-83
2023/05/23 13:49:43;;;;;;;;;;;23.00;1.00;;;;;;5079639;28;19997;-83
2023/05/23 13:52:09;;;;;;;;;;;22.50;1.00;;;;;;5093281;28;19932;-83
2023/05/23 13:54:34;;;;;;;;;;;21.40;1.00;;;;;;5110701;28;19939;-88
2023/05/23 13:57:02;;;;;;;;;;;20.50;1.00;;;;;;5108323;28;19942;-83
2023/05/23 13:59:27;;;;;;;;;;;19.50;1.00;;;;;;5099838;28;20383;-83
2023/05/23 14:01:53;;;;;;;;;;;18.60;1.00;;;;;;5109743;28;20004;-83
2023/05/23 14:04:19;;;;;;;;;;;17.60;1.00;;;;;;5076344;28;19970;-79
2023/05/23 14:06:44;;;;;;;;;;;17.20;1.00;;;;;;5104097;28;19927;-81
2023/05/23 14:09:11;;;;;;;;;;;17.40;1.00;;;;;;5107863;28;19924;-79
2023/05/23 14:11:37;;;;;;;;;;;17.80;1.00;;;;;;5097174;28;20411;-87
2023/05/23 14:14:02;;;;;;;;;;;18.20;1.00;;;;;;5102553;28;20018;-77
2023/05/23 14:16:28;;;;;;;;;;;18.50;1.00;;;;;;5102173;28;19981;-76
2023/05/23 14:18:53;;;;;;;;;;;18.30;1.00;;;;;;5108313;28;19932;-76
2023/05/23 14:21:20;;;;;;;;;;;18.90;1.00;;;;;;5099588;28;19932;-84
2023/05/23 14:23:46;;;;;;;;;;;18.80;1.00;;;;;;5100158;28;19946;-84
2023/05/23 14:26:11;;;;;;;;;;;18.50;1.00;;;;;;5061188;28;20543;-83
2023/05/23 14:28:37;;;;;;;;;;;19.00;1.00;;;;;;5108254;28;19977;-87
2023/05/23 14:31:03;;;;;;;;;;;18.70;1.00;;;;;;5104136;28;19924;-83
2023/05/23 14:33:28;;;;;;;;;;;18.10;1.00;;;;;;5106727;28;20364;-81
2023/05/23 14:35:54;;;;;;;;;;;17.90;1.00;;;;;;5108509;28;20042;-85
2023/05/23 14:38:20;;;;;;;;;;;17.60;1.00;;;;;;5107032;28;19928;-81
2023/05/23 14:40:48;;;;;;;;;;;17.30;1.00;;;;;;5106893;28;19923;-82
2023/05/23 14:43:14;;;;;;;;;;;18.20;1.00;;;;;;5102361;28;19951;-81
2023/05/23 14:45:40;;;;;;;;;;;19.70;1.00;;;;;;5121362;27;20364;-85
2023/05/23 14:48:06;;;;;;;;;;;20.20;1.00;;;;;;5109949;28;19932;-80
2023/05/23 14:50:32;;;;;;;;;;;19.50;1.00;;;;;;5109728;28;19931;-79
2023/05/23 14:52:58;;;;;;;;;;;19.70;1.00;;;;;;5106167;28;19924;-79
2023/05/23 14:55:24;;;;;;;;;;;20.40;1.00;;;;;;5109379;28;20332;-79
2023/05/23 14:57:50;;;;;;;;;;;19.90;1.00;;;;;;5109385;28;20391;-80
2023/05/23 15:00:16;;;;;;;;;;;19.10;1.00;;;;;;5108406;28;19932;-79
2023/05/23 15:02:41;;;;;;;;;;;19.60;1.00;;;;;;5097191;28;19935;-87
2023/05/23 15:05:07;;;;;;;;;;;19.20;1.00;;;;;;5102619;28;20052;-80
2023/05/23 15:07:34;;;;;;;;;;;19.40;1.00;;;;;;5100389;28;20403;-79
2023/05/23 15:10:00;;;;;;;;;;;19.80;1.00;;;;;;5091766;28;19934;-82
2023/05/23 15:12:27;;;;;;;;;;;20.10;1.00;;;;;;5111005;28;19963;-79
2023/05/23 15:14:52;;;;;;;;;;;20.70;1.00;;;;;;5090151;28;19924;-80
2023/05/23 15:17:20;;;;;;;;;;;21.20;1.00;;;;;;5103581;28;19947;-79
2023/05/23 15:19:46;;;;;;;;;;;21.40;1.00;;;;;;5081120;28;20376;-86
2023/05/23 15:22:13;;;;;;;;;;;21.50;1.00;;;;;;5113518;28;20003;-80
2023/05/23 15:24:38;;;;;;;;;;;21.50;1.00;;;;;;5113224;28;19924;-79
2023/05/23 15:27:04;;;;;;;;;;;21.70;1.00;;;;;;5114480;28;19955;-79
2023/05/23 15:29:32;;;;;;;;;;;20.90;1.00;;;;;;5112712;28;19928;-82
2023/05/23 15:31:57;;;;;;;;;;;20.30;1.00;;;;;;5108657;28;19923;-79
2023/05/23 15:34:23;;;;;;;;;;;20.50;1.00;;;;;;5114445;28;19931;-79
2023/05/23 15:36:50;;;;;;;;;;;20.80;1.00;;;;;;5112959;28;19965;-82
2023/05/23 15:39:15;;;;;;;;;;;21.10;1.00;;;;;;5111088;28;19931;-82
2023/05/23 15:41:41;;;;;;;;;;;20.70;1.00;;;;;;5105254;28;19939;-79
2023/05/23 15:44:07;;;;;;;;;;;20.70;1.00;;;;;;5108616;28;20219;-84
2023/05/23 15:46:32;;;;;;;;;;;21.10;1.00;;;;;;5109014;28;19924;-79
2023/05/23 15:48:58;;;;;;;;;;;21.10;1.00;;;;;;5123089;27;20043;-79